Time;durP1;ratioP1;P1;durP2;ratioP2;P2;SDS_P1;SDS_P2;PMS_P1;PMS_P2;Temp;Humidity;BMP_temperature;BMP_pressure;BME280_temperature;BME280_humidity;BME280_pressure;Samples;Min_cycle;Max_cycle;Signal;HPM_P1;HPM_P2
2023/04/03 00:01:54;;;;;;;1.67;0.90;;;6.40;85.40;;;;;;5100446;27;20195;-59
2023/04/03 00:04:21;;;;;;;5.03;1.10;;;6.50;85.60;;;;;;5108657;28;20257;-60
2023/04/03 00:06:48;;;;;;;1.53;0.80;;;6.40;84.90;;;;;;5102218;28;20206;-59
2023/04/03 00:09:15;;;;;;;1.63;0.73;;;6.50;84.40;;;;;;5103536;27;20204;-59
2023/04/03 00:11:42;;;;;;;2.60;0.90;;;6.50;83.60;;;;;;5105229;28;20231;-59
2023/04/03 00:14:11;;;;;;;2.20;0.60;;;6.40;83.10;;;;;;5099458;28;20250;-59
2023/04/03 00:16:38;;;;;;;3.37;0.77;;;6.50;83.50;;;;;;5103480;28;20222;-59
2023/04/03 00:19:05;;;;;;;1.00;0.70;;;6.50;83.40;;;;;;5097251;28;20200;-59
2023/04/03 00:21:32;;;;;;;4.60;0.90;;;6.50;82.90;;;;;;5127301;27;20293;-60
2023/04/03 00:23:59;;;;;;;1.80;0.70;;;6.50;82.60;;;;;;5108697;28;20188;-59
2023/04/03 00:26:26;;;;;;;1.60;0.60;;;6.50;81.90;;;;;;5101165;28;20199;-60
2023/04/03 00:28:54;;;;;;;1.63;0.60;;;6.50;81.80;;;;;;5092657;28;20699;-60
2023/04/03 00:31:22;;;;;;;1.63;0.67;;;6.50;81.90;;;;;;5095654;28;20215;-59
2023/04/03 00:33:49;;;;;;;3.47;0.90;;;6.60;81.60;;;;;;5091858;28;20199;-59
2023/04/03 00:36:16;;;;;;;1.80;1.00;;;6.60;81.40;;;;;;5094617;28;20192;-59
2023/04/03 00:38:43;;;;;;;1.83;0.77;;;6.60;81.40;;;;;;5095101;28;20199;-59
2023/04/03 00:41:11;;;;;;;3.40;0.70;;;6.60;81.30;;;;;;5094187;28;20199;-59
2023/04/03 00:43:38;;;;;;;1.43;0.90;;;6.60;80.80;;;;;;5100770;28;20643;-59
2023/04/03 00:46:05;;;;;;;1.17;0.80;;;6.60;80.30;;;;;;5104005;28;20205;-59
2023/04/03 00:48:38;;;;;;;1.67;0.50;;;6.50;78.90;;;;;;5099603;28;20200;-59
2023/04/03 00:51:08;;;;;;;4.57;0.70;;;6.50;78.50;;;;;;5108355;28;20678;-59
2023/04/03 00:53:40;;;;;;;1.47;0.80;;;6.50;78.70;;;;;;5108728;28;20195;-59
2023/04/03 00:56:11;;;;;;;2.43;1.00;;;6.50;79.00;;;;;;5114463;27;20210;-59
2023/04/03 00:58:42;;;;;;;1.97;0.80;;;6.50;78.10;;;;;;5101587;27;20192;-59
2023/04/03 01:03:46;;;;;;;1.23;0.70;;;6.50;78.30;;;;;;4194429;22;20992;-63
2023/04/03 01:06:17;;;;;;;1.57;0.73;;;6.50;78.30;;;;;;5074637;28;20195;-63
2023/04/03 01:08:46;;;;;;;0.93;0.60;;;6.50;77.50;;;;;;5101833;27;20318;-63
2023/04/03 01:11:13;;;;;;;0.43;0.43;;;6.50;77.20;;;;;;5088943;28;20296;-64
2023/04/03 01:13:41;;;;;;;2.13;0.80;;;6.50;76.80;;;;;;5086582;28;20678;-64
2023/04/03 01:16:08;;;;;;;0.60;0.60;;;6.50;76.60;;;;;;5086085;28;20238;-63
2023/04/03 01:18:39;;;;;;;0.50;0.50;;;6.50;76.00;;;;;;5083492;28;20299;-63
2023/04/03 01:21:37;;;;;;;0.83;0.83;;;6.50;76.20;;;;;;5083378;28;20539;-63
2023/04/03 01:24:28;;;;;;;4.00;0.93;;;6.50;75.50;;;;;;5100414;28;20310;-64
2023/04/03 01:26:56;;;;;;;2.70;0.73;;;6.50;75.20;;;;;;5087157;28;20219;-64
2023/04/03 01:29:23;;;;;;;3.60;0.97;;;6.50;74.90;;;;;;5085326;28;20200;-64
2023/04/03 01:31:55;;;;;;;1.83;0.73;;;6.40;74.40;;;;;;5085778;28;20219;-64
2023/04/03 01:34:22;;;;;;;0.83;0.67;;;6.40;74.40;;;;;;5087990;28;20294;-64
2023/04/03 01:36:51;;;;;;;2.47;0.90;;;6.40;73.70;;;;;;5103298;28;20562;-63
2023/04/03 01:39:19;;;;;;;2.43;0.60;;;6.40;73.10;;;;;;5085723;28;20605;-63
2023/04/03 01:41:47;;;;;;;1.93;0.70;;;6.30;73.00;;;;;;5086595;28;20659;-63
2023/04/03 01:44:21;;;;;;;5.13;1.00;;;6.30;72.80;;;;;;5086231;28;20211;-63
2023/04/03 01:46:49;;;;;;;2.17;0.90;;;6.30;72.90;;;;;;5087437;28;20206;-64
2023/04/03 01:49:17;;;;;;;3.80;0.90;;;6.30;73.00;;;;;;5085275;28;20218;-64
2023/04/03 01:51:45;;;;;;;1.10;0.57;;;6.30;73.00;;;;;;5087262;28;20204;-64
2023/04/03 01:54:12;;;;;;;2.80;0.63;;;6.30;73.40;;;;;;5087375;28;20224;-64
2023/04/03 01:56:39;;;;;;;3.47;1.00;;;6.30;74.00;;;;;;5085246;28;20195;-64
2023/04/03 01:59:06;;;;;;;2.57;1.00;;;6.30;74.30;;;;;;5091643;28;20598;-64
2023/04/03 02:01:33;;;;;;;3.03;0.90;;;6.30;74.00;;;;;;5087651;28;20245;-64
2023/04/03 02:04:01;;;;;;;0.97;0.93;;;6.30;73.30;;;;;;5079123;28;20339;-63
2023/04/03 02:06:29;;;;;;;1.33;0.70;;;6.30;73.10;;;;;;5087933;28;20226;-64
2023/04/03 02:08:56;;;;;;;3.37;0.70;;;6.20;72.60;;;;;;5086048;28;20183;-64
2023/04/03 02:11:24;;;;;;;1.03;0.70;;;6.20;72.60;;;;;;5087523;28;20305;-63
2023/04/03 02:13:51;;;;;;;1.20;0.73;;;6.20;72.90;;;;;;5088277;28;20204;-64
2023/04/03 02:16:18;;;;;;;1.10;0.70;;;6.20;72.80;;;;;;5084212;28;20206;-64
2023/04/03 02:18:45;;;;;;;3.60;0.80;;;6.20;72.90;;;;;;5086624;28;20254;-64
2023/04/03 02:21:12;;;;;;;1.57;0.80;;;6.30;72.60;;;;;;5078069;28;20199;-64
2023/04/03 02:23:40;;;;;;;2.70;0.50;;;6.20;72.40;;;;;;5084690;28;20195;-65
2023/04/03 02:26:10;;;;;;;2.30;1.00;;;6.20;71.80;;;;;;5088775;28;20297;-64
2023/04/03 02:28:37;;;;;;;1.80;0.67;;;6.20;71.40;;;;;;5085375;28;20200;-63
2023/04/03 02:31:06;;;;;;;1.70;0.63;;;6.20;71.20;;;;;;5087272;28;20238;-63
2023/04/03 02:33:33;;;;;;;1.10;0.60;;;6.30;70.90;;;;;;5085728;28;20220;-63
2023/04/03 02:36:01;;;;;;;2.77;0.97;;;6.30;70.90;;;;;;5088356;28;20294;-62
2023/04/03 02:38:28;;;;;;;1.27;0.80;;;6.30;70.50;;;;;;5086995;28;20253;-63
2023/04/03 02:41:01;;;;;;;0.67;0.67;;;6.30;69.50;;;;;;5103018;28;20507;-63
2023/04/03 02:43:28;;;;;;;1.47;0.90;;;6.20;69.10;;;;;;5087349;28;20195;-63
2023/04/03 02:45:55;;;;;;;1.90;0.70;;;6.20;68.60;;;;;;5084336;28;20648;-63
2023/04/03 02:48:22;;;;;;;3.37;0.90;;;6.20;68.70;;;;;;5086980;28;20202;-62
2023/04/03 02:50:49;;;;;;;3.20;0.77;;;6.20;68.10;;;;;;5106114;28;20195;-64
2023/04/03 02:53:17;;;;;;;1.43;0.83;;;6.10;67.80;;;;;;5090936;28;20221;-63
2023/04/03 02:55:44;;;;;;;2.03;0.73;;;6.10;67.80;;;;;;5090485;28;20627;-64
2023/04/03 02:58:13;;;;;;;1.73;0.90;;;6.10;67.70;;;;;;5091000;28;20669;-64
2023/04/03 03:00:41;;;;;;;3.13;0.70;;;6.10;67.70;;;;;;5089067;28;20198;-63
2023/04/03 03:03:08;;;;;;;0.97;0.57;;;6.10;67.40;;;;;;5105543;28;20220;-63
2023/04/03 03:05:35;;;;;;;2.17;0.83;;;6.10;67.30;;;;;;5087477;28;20577;-64
2023/04/03 03:08:03;;;;;;;1.00;0.80;;;6.10;67.60;;;;;;5087974;28;20216;-63
2023/04/03 03:10:30;;;;;;;1.53;0.80;;;6.10;66.20;;;;;;5087638;28;20196;-64
2023/04/03 03:12:57;;;;;;;0.67;0.50;;;6.10;65.80;;;;;;5088991;28;20220;-64
2023/04/03 03:15:25;;;;;;;2.93;0.90;;;6.10;65.20;;;;;;5083090;28;20201;-64
2023/04/03 03:17:52;;;;;;;1.47;0.70;;;6.10;64.70;;;;;;5089883;28;20281;-64
2023/04/03 03:20:21;;;;;;;2.50;0.70;;;6.10;65.20;;;;;;5082612;28;20310;-63
2023/04/03 03:22:48;;;;;;;1.37;0.90;;;6.10;65.80;;;;;;5090537;28;20553;-64
2023/04/03 03:25:15;;;;;;;2.40;1.10;;;6.10;65.80;;;;;;5088884;28;20209;-63
2023/04/03 03:27:42;;;;;;;0.77;0.70;;;6.10;65.60;;;;;;5091595;28;20198;-63
2023/04/03 03:30:10;;;;;;;1.03;0.67;;;6.10;64.90;;;;;;5088220;28;20286;-63
2023/04/03 03:32:39;;;;;;;2.03;0.80;;;6.10;65.30;;;;;;5089757;28;20259;-64
2023/04/03 03:35:06;;;;;;;0.83;0.53;;;6.20;65.50;;;;;;5090237;28;20319;-64
2023/04/03 03:37:33;;;;;;;1.10;0.70;;;6.10;65.20;;;;;;5089642;28;20200;-64
2023/04/03 03:40:00;;;;;;;2.00;0.77;;;6.10;65.60;;;;;;5088989;28;20658;-64
2023/04/03 03:42:27;;;;;;;1.07;0.90;;;6.10;65.70;;;;;;5089704;28;20739;-64
2023/04/03 03:44:54;;;;;;;1.83;0.77;;;6.10;65.80;;;;;;5087889;28;20280;-63
2023/04/03 03:47:22;;;;;;;2.63;0.90;;;6.10;65.80;;;;;;5088362;28;20294;-64
2023/04/03 03:49:50;;;;;;;2.00;0.70;;;6.10;65.50;;;;;;5089486;28;20198;-64
2023/04/03 03:52:18;;;;;;;0.90;0.70;;;6.10;64.90;;;;;;5089063;28;20231;-64
2023/04/03 03:54:45;;;;;;;1.90;0.73;;;6.10;64.80;;;;;;5090005;28;20203;-64
2023/04/03 03:57:12;;;;;;;5.00;0.80;;;6.10;65.40;;;;;;5088879;28;20204;-64
2023/04/03 03:59:41;;;;;;;4.53;0.80;;;6.10;64.40;;;;;;5076725;28;20251;-64
2023/04/03 04:02:08;;;;;;;1.17;0.70;;;6.10;63.70;;;;;;5079917;28;20194;-64
2023/04/03 04:04:36;;;;;;;1.40;0.73;;;6.10;64.00;;;;;;5087685;28;20198;-64
2023/04/03 04:07:05;;;;;;;2.00;0.80;;;6.10;64.20;;;;;;5091123;28;20203;-64
2023/04/03 04:09:34;;;;;;;0.90;0.70;;;6.10;63.80;;;;;;5083814;28;20195;-64
2023/04/03 04:12:01;;;;;;;2.43;0.60;;;6.20;64.10;;;;;;5089002;28;20294;-64
2023/04/03 04:14:30;;;;;;;1.67;0.90;;;6.10;63.60;;;;;;5087714;28;20276;-64
2023/04/03 04:16:57;;;;;;;2.27;0.73;;;6.10;63.80;;;;;;5082890;28;20270;-64
2023/04/03 04:19:27;;;;;;;1.53;0.70;;;6.10;64.10;;;;;;5083311;28;20227;-64
2023/04/03 04:21:55;;;;;;;1.47;0.70;;;6.10;63.60;;;;;;5085285;28;20703;-64
2023/04/03 04:24:24;;;;;;;3.00;0.80;;;6.00;63.80;;;;;;5088359;28;20199;-64
2023/04/03 04:26:54;;;;;;;1.53;0.90;;;6.00;64.50;;;;;;5088402;28;20188;-64
2023/04/03 04:29:22;;;;;;;2.83;0.70;;;6.00;64.50;;;;;;5077585;28;20283;-64
2023/04/03 04:31:51;;;;;;;3.53;0.60;;;5.90;64.20;;;;;;5086841;28;20201;-64
2023/04/03 04:34:19;;;;;;;1.10;0.77;;;5.90;64.20;;;;;;5088039;28;20222;-64
2023/04/03 04:36:47;;;;;;;3.17;0.93;;;5.90;63.30;;;;;;5088722;28;20575;-64
2023/04/03 04:39:14;;;;;;;1.43;0.80;;;5.90;63.40;;;;;;5086481;28;20199;-64
2023/04/03 04:41:43;;;;;;;1.30;0.80;;;5.80;63.60;;;;;;5087813;28;20222;-64
2023/04/03 04:44:10;;;;;;;1.93;0.90;;;5.90;64.30;;;;;;5087856;28;20804;-64
2023/04/03 04:46:39;;;;;;;1.87;0.70;;;5.90;64.90;;;;;;5087942;28;20206;-64
2023/04/03 04:49:07;;;;;;;0.77;0.63;;;6.00;65.10;;;;;;5086732;28;20195;-64
2023/04/03 04:51:35;;;;;;;2.33;0.90;;;6.00;64.80;;;;;;5088683;28;20224;-64
2023/04/03 04:54:02;;;;;;;1.93;0.70;;;6.00;64.20;;;;;;5089079;28;20207;-64
2023/04/03 04:56:29;;;;;;;2.77;1.00;;;5.90;63.70;;;;;;5088363;28;20207;-64
2023/04/03 04:58:59;;;;;;;2.73;0.83;;;5.90;64.10;;;;;;5078748;28;20613;-64
2023/04/03 05:01:27;;;;;;;1.57;0.80;;;5.90;64.70;;;;;;5079123;28;20649;-64
2023/04/03 05:04:05;;;;;;;2.17;0.97;;;6.00;65.00;;;;;;5085033;28;20291;-65
2023/04/03 05:06:32;;;;;;;3.87;1.00;;;6.00;65.20;;;;;;5078321;28;20215;-64
2023/04/03 05:09:01;;;;;;;1.10;1.00;;;6.00;65.20;;;;;;5075805;28;20205;-64
2023/04/03 05:11:29;;;;;;;2.73;0.73;;;6.10;65.50;;;;;;5087671;28;20207;-64
2023/04/03 05:13:57;;;;;;;3.70;1.00;;;6.10;65.40;;;;;;5087047;28;20616;-64
2023/04/03 05:16:27;;;;;;;0.70;0.67;;;6.10;65.00;;;;;;5087454;28;20202;-64
2023/04/03 05:18:54;;;;;;;1.43;0.80;;;6.10;64.80;;;;;;5086590;28;20293;-64
2023/04/03 05:21:25;;;;;;;3.73;0.97;;;6.10;64.50;;;;;;5085869;28;20199;-64
2023/04/03 05:23:53;;;;;;;6.57;1.70;;;6.10;64.80;;;;;;5087613;28;20214;-64
2023/04/03 05:26:21;;;;;;;2.40;1.10;;;6.10;64.80;;;;;;5088661;28;20199;-64
2023/04/03 05:28:50;;;;;;;4.70;1.37;;;6.10;65.00;;;;;;5086712;28;20203;-64
2023/04/03 05:31:17;;;;;;;3.50;0.93;;;6.10;64.50;;;;;;5085567;28;20520;-64
2023/04/03 05:33:46;;;;;;;1.60;0.80;;;6.00;64.10;;;;;;5085930;28;20219;-64
2023/04/03 05:36:17;;;;;;;1.93;0.80;;;6.00;64.10;;;;;;5087661;28;20194;-64
2023/04/03 05:38:49;;;;;;;0.67;0.67;;;6.00;64.30;;;;;;5085147;28;20237;-64
2023/04/03 05:41:16;;;;;;;2.27;1.00;;;6.00;64.20;;;;;;5086779;28;20210;-64
2023/04/03 05:43:46;;;;;;;2.63;0.90;;;6.00;63.70;;;;;;5087626;28;20225;-64
2023/04/03 05:46:16;;;;;;;5.57;1.20;;;6.00;63.40;;;;;;5086155;28;20289;-64
2023/04/03 05:48:46;;;;;;;3.20;0.87;;;6.00;63.20;;;;;;5086528;28;20290;-64
2023/04/03 05:51:19;;;;;;;2.10;0.70;;;6.00;63.40;;;;;;5085598;28;20223;-64
2023/04/03 05:53:51;;;;;;;1.37;0.90;;;6.00;63.30;;;;;;5101173;28;20251;-64
2023/04/03 05:56:18;;;;;;;4.20;0.87;;;6.00;63.50;;;;;;5088518;28;20204;-64
2023/04/03 05:58:45;;;;;;;0.80;0.80;;;6.10;63.90;;;;;;5078210;28;20213;-64
2023/04/03 06:01:12;;;;;;;2.80;0.93;;;6.10;64.00;;;;;;5093892;28;20202;-64
2023/04/03 06:03:40;;;;;;;1.57;0.90;;;6.10;64.40;;;;;;5081902;28;20235;-64
2023/04/03 06:06:14;;;;;;;4.87;1.27;;;6.20;64.90;;;;;;5088100;28;20201;-64
2023/04/03 06:08:41;;;;;;;1.33;0.80;;;6.30;64.80;;;;;;5087899;28;20287;-64
2023/04/03 06:11:08;;;;;;;8.00;1.10;;;6.30;64.50;;;;;;5085520;28;20204;-64
2023/04/03 06:13:36;;;;;;;2.10;0.80;;;6.20;63.20;;;;;;5079804;28;20435;-64
2023/04/03 06:16:04;;;;;;;1.73;0.70;;;6.20;62.60;;;;;;5077830;28;20718;-64
2023/04/03 06:18:31;;;;;;;3.70;0.90;;;6.10;62.60;;;;;;5085405;28;20682;-64
2023/04/03 06:21:00;;;;;;;5.40;1.33;;;6.20;62.70;;;;;;5086299;28;20193;-64
2023/04/03 06:23:29;;;;;;;2.87;1.10;;;6.30;63.40;;;;;;5082150;28;20658;-64
2023/04/03 06:25:56;;;;;;;2.43;1.17;;;6.30;64.10;;;;;;5086584;28;20226;-64
2023/04/03 06:28:23;;;;;;;4.73;0.97;;;6.40;64.80;;;;;;5084759;28;20283;-64
2023/04/03 06:30:50;;;;;;;1.93;0.80;;;6.50;64.60;;;;;;5088091;28;20200;-64
2023/04/03 06:33:17;;;;;;;2.97;0.70;;;6.60;63.70;;;;;;5085670;28;20292;-64
2023/04/03 06:35:44;;;;;;;2.60;0.77;;;6.60;63.00;;;;;;5087646;28;20249;-64
2023/04/03 06:38:11;;;;;;;2.00;1.00;;;6.60;62.40;;;;;;5091423;28;20324;-64
2023/04/03 06:40:40;;;;;;;1.50;0.90;;;6.60;62.50;;;;;;5089521;28;20213;-64
2023/04/03 06:43:08;;;;;;;2.27;0.90;;;6.60;61.90;;;;;;5088987;28;20258;-64
2023/04/03 06:45:36;;;;;;;1.87;1.10;;;6.60;61.60;;;;;;5089388;28;20198;-64
2023/04/03 06:48:03;;;;;;;3.33;0.80;;;6.70;61.00;;;;;;5072443;28;20199;-64
2023/04/03 06:50:30;;;;;;;0.80;0.63;;;6.70;60.00;;;;;;5089018;28;20360;-64
2023/04/03 06:52:57;;;;;;;1.10;0.80;;;6.70;59.80;;;;;;5086819;28;20270;-64
2023/04/03 06:55:24;;;;;;;6.83;1.00;;;6.70;59.50;;;;;;5090012;28;20223;-64
2023/04/03 06:57:52;;;;;;;0.70;0.60;;;6.70;59.70;;;;;;5082027;28;20200;-64
2023/04/03 07:00:20;;;;;;;1.40;0.80;;;6.70;59.50;;;;;;5089339;28;20225;-64
2023/04/03 07:02:48;;;;;;;10.97;1.40;;;6.70;59.60;;;;;;5083680;28;20240;-64
2023/04/03 07:05:15;;;;;;;2.00;1.07;;;6.80;59.70;;;;;;5085811;28;20199;-64
2023/04/03 07:07:42;;;;;;;2.03;1.00;;;6.80;60.00;;;;;;5086561;28;20207;-64
2023/04/03 07:10:11;;;;;;;2.97;0.70;;;6.70;59.90;;;;;;5089798;28;20196;-64
2023/04/03 07:12:38;;;;;;;3.27;0.80;;;6.70;60.30;;;;;;5082177;28;20315;-64
2023/04/03 07:15:08;;;;;;;0.67;0.60;;;6.80;60.70;;;;;;5085179;28;20246;-63
2023/04/03 07:17:35;;;;;;;4.60;0.90;;;6.80;60.70;;;;;;5084677;28;20261;-63
2023/04/03 07:20:03;;;;;;;3.10;0.87;;;6.80;60.60;;;;;;5090200;28;20541;-63
2023/04/03 07:22:32;;;;;;;2.23;0.67;;;6.80;60.70;;;;;;5086760;28;20283;-63
2023/04/03 07:24:59;;;;;;;3.70;0.87;;;6.80;61.00;;;;;;5087166;28;20191;-63
2023/04/03 07:27:27;;;;;;;3.90;0.80;;;6.90;59.90;;;;;;5085822;28;20309;-63
2023/04/03 07:29:55;;;;;;;1.03;0.60;;;6.90;60.00;;;;;;5088775;28;20212;-64
2023/04/03 07:32:24;;;;;;;3.83;0.90;;;7.10;60.30;;;;;;5086506;28;20663;-64
2023/04/03 07:34:51;;;;;;;3.73;0.87;;;7.20;60.30;;;;;;5088001;28;20253;-63
2023/04/03 07:37:19;;;;;;;2.20;0.70;;;7.30;59.80;;;;;;5086066;28;20206;-63
2023/04/03 07:39:46;;;;;;;3.67;1.00;;;7.30;59.30;;;;;;5089615;28;20203;-62
2023/04/03 07:42:13;;;;;;;1.90;0.77;;;7.30;59.20;;;;;;5090556;28;20293;-63
2023/04/03 07:44:40;;;;;;;0.67;0.67;;;7.30;59.30;;;;;;5089181;28;20211;-64
2023/04/03 07:47:08;;;;;;;1.57;0.90;;;7.40;59.70;;;;;;5076996;28;20196;-63
2023/04/03 07:49:39;;;;;;;1.53;0.70;;;7.40;59.70;;;;;;5076442;28;20205;-64
2023/04/03 07:52:07;;;;;;;0.70;0.70;;;7.40;60.00;;;;;;5086362;28;20196;-64
2023/04/03 07:54:35;;;;;;;1.83;1.00;;;7.50;60.20;;;;;;5088955;28;20232;-63
2023/04/03 07:57:02;;;;;;;2.10;1.00;;;7.60;61.50;;;;;;5087405;28;20543;-64
2023/04/03 07:59:29;;;;;;;1.33;0.77;;;7.70;60.00;;;;;;5087940;28;20567;-63
2023/04/03 08:01:56;;;;;;;1.60;0.63;;;7.80;59.40;;;;;;5076897;28;20646;-63
2023/04/03 08:04:23;;;;;;;3.33;0.80;;;7.80;59.00;;;;;;5085559;28;20192;-63
2023/04/03 08:06:52;;;;;;;0.60;0.60;;;7.80;59.00;;;;;;5084762;28;20621;-63
2023/04/03 08:09:19;;;;;;;2.23;0.63;;;7.90;59.00;;;;;;5081038;28;20263;-63
2023/04/03 08:11:46;;;;;;;6.43;0.90;;;8.00;59.10;;;;;;5084867;28;20197;-63
2023/04/03 08:14:18;;;;;;;2.43;1.20;;;8.20;59.30;;;;;;5081172;28;20215;-63
2023/04/03 08:16:46;;;;;;;1.07;0.83;;;8.20;59.20;;;;;;5081047;28;20200;-63
2023/04/03 08:19:15;;;;;;;0.53;0.50;;;8.10;59.30;;;;;;5084976;28;20193;-63
2023/04/03 08:21:42;;;;;;;5.23;0.70;;;8.00;59.50;;;;;;5086639;28;20232;-63
2023/04/03 08:24:11;;;;;;;4.87;0.90;;;8.00;59.90;;;;;;5084243;28;20616;-63
2023/04/03 08:26:38;;;;;;;2.90;0.90;;;8.00;59.80;;;;;;5086822;28;20283;-63
2023/04/03 08:29:05;;;;;;;3.43;1.00;;;8.00;59.70;;;;;;5083733;28;20201;-63
2023/04/03 08:31:33;;;;;;;0.90;0.73;;;7.90;59.30;;;;;;5087749;28;20279;-63
2023/04/03 08:34:00;;;;;;;6.03;1.07;;;7.90;59.70;;;;;;5080453;28;20226;-63
2023/04/03 08:36:29;;;;;;;2.57;0.90;;;7.90;59.70;;;;;;5086799;28;20527;-64
2023/04/03 08:38:57;;;;;;;1.83;0.60;;;7.90;59.20;;;;;;5083963;28;20264;-64
2023/04/03 08:41:32;;;;;;;3.30;0.70;;;8.00;59.30;;;;;;5085943;28;20563;-64
2023/04/03 08:44:16;;;;;;;1.37;0.70;;;8.10;59.70;;;;;;5074643;28;20208;-64
2023/04/03 08:46:56;;;;;;;0.67;0.60;;;8.20;59.30;;;;;;5081572;28;20194;-64
2023/04/03 08:49:27;;;;;;;0.97;0.60;;;8.40;59.50;;;;;;5086394;28;20672;-64
2023/04/03 08:51:56;;;;;;;1.37;0.43;;;8.60;59.30;;;;;;5086329;28;20200;-64
2023/04/03 08:54:31;;;;;;;1.67;0.70;;;8.70;58.90;;;;;;5087989;28;20251;-64
2023/04/03 08:57:03;;;;;;;0.40;0.40;;;8.90;59.00;;;;;;5087953;28;20615;-65
2023/04/03 08:59:34;;;;;;;4.90;0.77;;;9.00;59.10;;;;;;5085023;28;20188;-64
2023/04/03 09:02:06;;;;;;;0.77;0.63;;;9.20;59.30;;;;;;5080924;28;20211;-65
2023/04/03 09:04:34;;;;;;;1.53;0.90;;;9.30;59.30;;;;;;5078121;28;20190;-64
2023/04/03 09:07:09;;;;;;;3.83;0.90;;;9.30;59.20;;;;;;5081889;28;20242;-64
2023/04/03 09:09:40;;;;;;;2.37;0.70;;;9.30;59.00;;;;;;5087503;28;20230;-64
2023/04/03 09:12:18;;;;;;;2.20;0.80;;;9.30;58.90;;;;;;5074889;28;20583;-65
2023/04/03 09:14:57;;;;;;;4.70;0.93;;;9.30;58.90;;;;;;5080514;28;20214;-64
2023/04/03 09:17:37;;;;;;;2.77;0.90;;;9.40;59.70;;;;;;5085390;28;20564;-65
2023/04/03 09:20:15;;;;;;;2.43;1.00;;;9.50;59.30;;;;;;5088386;28;20180;-64
2023/04/03 09:22:44;;;;;;;4.13;0.90;;;9.50;59.50;;;;;;5085321;28;20330;-64
2023/04/03 09:25:16;;;;;;;1.00;0.80;;;9.60;59.80;;;;;;5102267;28;20200;-64
2023/04/03 09:27:46;;;;;;;0.80;0.70;;;9.60;59.80;;;;;;5087300;28;20199;-64
2023/04/03 09:30:15;;;;;;;5.40;1.00;;;9.60;59.60;;;;;;5087269;28;20221;-64
2023/04/03 09:32:45;;;;;;;0.93;0.70;;;9.70;59.80;;;;;;5086431;28;20234;-64
2023/04/03 09:35:21;;;;;;;1.00;0.80;;;9.60;59.90;;;;;;5084930;28;20206;-64
2023/04/03 09:37:49;;;;;;;2.57;1.07;;;9.60;60.40;;;;;;5083555;28;20637;-63
2023/04/03 09:40:35;;;;;;;4.97;0.93;;;9.70;60.70;;;;;;5081797;28;20203;-64
2023/04/03 09:43:22;;;;;;;5.90;1.00;;;9.70;60.50;;;;;;5082470;28;20202;-63
2023/04/03 09:45:51;;;;;;;3.73;1.10;;;9.90;61.20;;;;;;5076249;28;20663;-63
2023/04/03 09:48:20;;;;;;;7.70;1.10;;;10.00;60.80;;;;;;5082668;28;20227;-63
2023/04/03 09:50:58;;;;;;;3.30;1.30;;;9.90;61.90;;;;;;5085346;28;20195;-63
2023/04/03 09:53:32;;;;;;;12.60;1.53;;;9.80;62.10;;;;;;5084709;28;20191;-63
2023/04/03 09:56:00;;;;;;;15.30;2.03;;;9.80;62.50;;;;;;5087738;28;20759;-63
2023/04/03 09:58:33;;;;;;;3.83;1.30;;;9.90;62.70;;;;;;5085890;28;20196;-63
2023/04/03 10:01:01;;;;;;;7.87;1.23;;;10.00;61.70;;;;;;5085964;28;20199;-63
2023/04/03 10:03:34;;;;;;;7.97;1.47;;;10.10;62.10;;;;;;5083728;28;20321;-63
2023/04/03 10:06:02;;;;;;;3.23;0.97;;;10.10;62.10;;;;;;5088777;28;20229;-64
2023/04/03 10:08:31;;;;;;;11.23;1.83;;;10.10;61.80;;;;;;5105089;28;20235;-64
2023/04/03 10:11:14;;;;;;;6.13;1.00;;;10.10;62.30;;;;;;5092247;28;20201;-64
2023/04/03 10:13:59;;;;;;;4.57;1.33;;;10.10;62.60;;;;;;5082071;28;20276;-64
2023/04/03 10:16:33;;;;;;;3.70;0.80;;;10.10;62.60;;;;;;5088718;28;20320;-65
2023/04/03 10:19:31;;;;;;;2.67;1.07;;;10.00;62.60;;;;;;5082496;28;20269;-64
2023/04/03 10:22:02;;;;;;;2.70;0.80;;;9.80;63.90;;;;;;5091430;28;20603;-64
2023/04/03 10:24:36;;;;;;;1.80;0.70;;;9.60;64.40;;;;;;5090680;28;20244;-64
2023/04/03 10:27:10;;;;;;;6.13;1.20;;;9.40;65.00;;;;;;5090491;28;20248;-64
2023/04/03 10:29:46;;;;;;;5.40;0.90;;;9.30;65.70;;;;;;5089293;28;20199;-64
2023/04/03 10:32:35;;;;;;;3.63;0.90;;;9.10;65.70;;;;;;5089716;28;20206;-64
2023/04/03 10:35:14;;;;;;;7.30;1.00;;;9.10;65.50;;;;;;5089563;28;20616;-63
2023/04/03 10:37:51;;;;;;;1.87;0.87;;;9.00;65.40;;;;;;5089298;28;20216;-63
2023/04/03 10:40:31;;;;;;;2.20;0.70;;;9.00;65.50;;;;;;5088883;28;20542;-63
2023/04/03 10:43:05;;;;;;;1.63;0.90;;;9.10;65.60;;;;;;5090862;28;20257;-64
2023/04/03 10:46:00;;;;;;;1.87;1.00;;;9.20;65.20;;;;;;5088891;28;20184;-63
2023/04/03 10:48:41;;;;;;;1.03;0.70;;;9.40;65.00;;;;;;5086613;28;20548;-65
2023/04/03 10:51:26;;;;;;;1.80;0.87;;;9.60;64.60;;;;;;5091154;28;20674;-63
2023/04/03 10:53:59;;;;;;;1.90;0.80;;;9.80;63.60;;;;;;5090422;28;20285;-64
2023/04/03 10:56:35;;;;;;;2.40;0.70;;;9.90;63.70;;;;;;5090232;28;20219;-63
2023/04/03 10:59:19;;;;;;;2.03;0.70;;;10.20;63.10;;;;;;5087773;28;20248;-63
2023/04/03 11:01:51;;;;;;;2.10;0.60;;;10.40;62.50;;;;;;5089534;28;20267;-63
2023/04/03 11:04:21;;;;;;;2.07;0.87;;;10.50;61.90;;;;;;5089397;28;20209;-64
2023/04/03 11:06:53;;;;;;;2.00;0.80;;;10.60;61.00;;;;;;5084862;28;20265;-63
2023/04/03 11:09:25;;;;;;;2.57;0.97;;;10.70;61.30;;;;;;5082545;28;20199;-63
2023/04/03 11:11:56;;;;;;;0.97;0.60;;;10.80;60.30;;;;;;5087936;28;20198;-64
2023/04/03 11:14:28;;;;;;;1.97;0.60;;;10.80;60.70;;;;;;5089155;28;20237;-63
2023/04/03 11:17:11;;;;;;;2.17;0.80;;;10.90;60.40;;;;;;5088844;28;20636;-63
2023/04/03 11:19:43;;;;;;;1.30;0.50;;;11.00;59.00;;;;;;5082945;28;20427;-63
2023/04/03 11:22:19;;;;;;;2.90;1.20;;;11.00;58.50;;;;;;5089685;28;20205;-63
2023/04/03 11:24:57;;;;;;;4.10;0.93;;;11.00;58.20;;;;;;5089958;28;20675;-63
2023/04/03 11:27:25;;;;;;;1.53;0.73;;;11.00;58.40;;;;;;5089028;28;20207;-63
2023/04/03 11:29:55;;;;;;;2.80;0.90;;;11.10;58.90;;;;;;5086804;28;20274;-64
2023/04/03 11:33:02;;;;;;;2.60;0.87;;;11.30;58.40;;;;;;5087674;28;20703;-64
2023/04/03 11:35:31;;;;;;;1.87;1.03;;;11.20;57.20;;;;;;5087723;28;20203;-63
2023/04/03 11:38:00;;;;;;;0.63;0.50;;;11.20;57.60;;;;;;5088192;28;20337;-63
2023/04/03 11:40:30;;;;;;;3.20;0.90;;;11.40;58.00;;;;;;5080484;28;20769;-64
2023/04/03 11:43:07;;;;;;;0.70;0.70;;;11.40;58.00;;;;;;5088783;28;20197;-63
2023/04/03 11:45:50;;;;;;;2.77;0.87;;;11.30;57.50;;;;;;5087279;28;20569;-63
2023/04/03 11:48:53;;;;;;;4.97;1.10;;;11.20;57.70;;;;;;5085780;28;20201;-63
2023/04/03 11:51:47;;;;;;;0.90;0.70;;;11.10;58.40;;;;;;5086449;28;20213;-63
2023/04/03 11:54:37;;;;;;;5.07;0.70;;;11.00;58.60;;;;;;5082872;28;20296;-63
2023/04/03 11:57:37;;;;;;;2.03;0.80;;;11.00;58.30;;;;;;5086721;28;20774;-63
2023/04/03 12:00:38;;;;;;;4.37;1.00;;;11.00;58.00;;;;;;5086368;28;20571;-63
2023/04/03 12:03:46;;;;;;;6.17;1.07;;;10.90;57.70;;;;;;5081091;28;20237;-64
2023/04/03 12:06:58;;;;;;;4.37;1.03;;;10.80;57.70;;;;;;5066028;28;20586;-64
2023/04/03 12:10:03;;;;;;;9.50;1.17;;;10.70;58.00;;;;;;5086117;28;20204;-64
2023/04/03 12:12:41;;;;;;;3.67;1.27;;;10.70;57.50;;;;;;5084679;28;20637;-63
2023/04/03 12:15:42;;;;;;;1.50;0.97;;;10.60;56.70;;;;;;5084253;28;20484;-64
2023/04/03 12:18:52;;;;;;;0.83;0.73;;;10.40;55.90;;;;;;5085560;28;20192;-64
2023/04/03 12:21:21;;;;;;;4.57;1.13;;;10.30;55.10;;;;;;5087620;28;20222;-63
2023/04/03 12:24:01;;;;;;;9.40;3.03;;;10.30;54.90;;;;;;5089667;28;20203;-63
2023/04/03 12:26:32;;;;;;;5.50;2.03;;;10.30;55.10;;;;;;5087625;28;20269;-64
2023/04/03 12:29:11;;;;;;;2.03;1.27;;;10.20;55.00;;;;;;5086493;28;20204;-63
2023/04/03 12:31:47;;;;;;;2.10;0.97;;;10.10;55.00;;;;;;5089191;28;20194;-63
2023/04/03 12:34:27;;;;;;;2.80;1.00;;;10.20;54.60;;;;;;5085503;28;20260;-64
2023/04/03 12:37:02;;;;;;;1.67;0.90;;;10.30;55.40;;;;;;5089060;28;20678;-63
2023/04/03 12:39:53;;;;;;;4.43;1.23;;;10.40;55.30;;;;;;5082058;28;20199;-64
2023/04/03 12:43:04;;;;;;;1.83;0.80;;;10.50;55.10;;;;;;5083895;28;20322;-63
2023/04/03 12:45:44;;;;;;;2.40;1.53;;;10.40;54.60;;;;;;5078252;28;20238;-63
2023/04/03 12:48:16;;;;;;;15.90;3.90;;;10.10;54.50;;;;;;5088072;28;20199;-63
2023/04/03 12:50:46;;;;;;;16.57;3.17;;;10.00;54.10;;;;;;5086505;28;20677;-64
2023/04/03 12:53:17;;;;;;;4.33;2.27;;;9.90;54.90;;;;;;5086723;28;20230;-63
2023/04/03 12:55:44;;;;;;;7.93;3.33;;;9.90;55.20;;;;;;5085656;28;20231;-64
2023/04/03 12:58:17;;;;;;;7.10;2.40;;;9.90;55.40;;;;;;5085767;28;20659;-64
2023/04/03 13:00:46;;;;;;;7.47;3.10;;;9.90;55.70;;;;;;5085839;28;20219;-64
2023/04/03 13:03:27;;;;;;;12.90;4.77;;;9.80;55.80;;;;;;5086616;28;20361;-64
2023/04/03 13:05:58;;;;;;;11.37;2.20;;;10.10;55.60;;;;;;5086560;28;20282;-64
2023/04/03 13:08:25;;;;;;;3.90;1.43;;;10.20;55.60;;;;;;5068398;28;20277;-64
2023/04/03 13:10:59;;;;;;;5.97;2.03;;;10.30;55.90;;;;;;5086132;28;20340;-63
2023/04/03 13:13:26;;;;;;;9.17;1.57;;;10.30;56.50;;;;;;5085007;28;20237;-63
2023/04/03 13:15:55;;;;;;;3.97;0.97;;;10.30;56.90;;;;;;5086616;28;20276;-63
2023/04/03 13:18:30;;;;;;;5.07;1.10;;;10.20;57.00;;;;;;5081039;28;20223;-63
2023/04/03 13:21:02;;;;;;;8.43;1.57;;;10.00;57.20;;;;;;5088266;28;20319;-63